Terminal Aerodrome Forecast
Issued by NWS

Home | Current Version | Previous Version | Text Only | Print | Product List | Glossary On
Versions: 1 2 3 4 5 6 7 8 9 10 11 12 13
278
FTUS45 KFGZ 252329
TAFPRC
TAF
KPRC 252329Z 2600/2624 VRB12G20KT P6SM VCTS BKN080CB BKN110
      TEMPO 2600/2602 VRB20G30KT 2SM TSRA BKN070CB OVC100
     FM260300 20005KT P6SM SCT070 BKN120
     FM262200 VRB05KT P6SM SCT080 BKN100 PROB30 2622/2624 TSRA
      BKN080CB=

USA.gov is the U.S. government's official web portal to all federal, state and local government web resources and services.